Terminal Aerodrome Forecast
Issued by NWS

Home | Current Version | Previous Version | Text Only | Print | Product List | Glossary On
Versions: 1 2 3 4 5 6 7 8 9 10 11 12 13 14 15 16 17 18 19 20 21 22 23 24 25
803
FTAK31 PANC 081741
TAFAHO
TAF
PAHO 081741Z 0818/0918 06010KT 6SM -SHRA OVC035 WS015/14035KT
      TEMPO 0818/0822 BKN025
     FM082200 09011KT P6SM -SHRA BKN035
     FM090000 13012KT P6SM VCSH OVC050=

USA.gov is the U.S. government's official web portal to all federal, state and local government web resources and services.